createdAt,value
2023-09-08T00:00:02.443Z,78.86
2023-09-08T00:05:01.758Z,79.60
2023-09-08T00:10:02.039Z,80.61
2023-09-08T00:15:02.333Z,80.27
2023-09-08T00:20:01.570Z,79.50
2023-09-08T00:24:58.825Z,80.11
2023-09-08T00:29:59.059Z,81.51
2023-09-08T00:34:59.335Z,80.94
2023-09-08T00:39:56.579Z,80.94
2023-09-08T00:44:55.820Z,80.85
2023-09-08T00:49:56.073Z,81.65
2023-09-08T00:54:55.328Z,81.35
2023-09-08T00:59:53.597Z,80.44
2023-09-08T01:04:52.899Z,79.30
2023-09-08T01:09:52.209Z,81.88
2023-09-08T01:14:51.325Z,83.03
2023-09-08T01:19:50.573Z,81.79
2023-09-08T01:24:50.926Z,81.09
2023-09-08T01:29:50.987Z,81.45
2023-09-08T01:34:50.270Z,81.68
2023-09-08T01:39:48.509Z,80.58
2023-09-08T01:44:47.775Z,81.73
2023-09-08T01:49:46.056Z,81.52
2023-09-08T01:54:46.208Z,80.28
2023-09-08T01:59:44.449Z,80.42
2023-09-08T02:04:43.839Z,80.32
2023-09-08T02:09:42.884Z,81.52
2023-09-08T02:14:44.185Z,80.92
2023-09-08T02:19:42.613Z,80.52
2023-09-08T02:24:41.703Z,79.92
2023-09-08T02:29:39.920Z,80.32
2023-09-08T02:34:39.195Z,79.55
2023-09-08T02:39:40.539Z,79.72
2023-09-08T02:44:37.781Z,80.82
2023-09-08T02:49:37.118Z,79.92
2023-09-08T02:54:37.396Z,80.66
2023-09-08T02:59:37.625Z,79.86
2023-09-08T03:04:40.008Z,81.70
2023-09-08T03:09:34.064Z,79.96
2023-09-08T03:14:33.530Z,80.50
2023-09-08T03:19:32.633Z,82.31
2023-09-08T03:24:33.867Z,80.30
2023-09-08T03:29:31.124Z,80.60
2023-09-08T03:34:30.511Z,81.14
2023-09-08T03:39:30.580Z,80.30
2023-09-08T03:44:29.874Z,79.80
2023-09-08T03:49:30.189Z,79.60
2023-09-08T03:54:27.431Z,80.19
2023-09-08T03:59:26.708Z,80.54
2023-09-08T04:04:26.995Z,80.83
2023-09-08T04:09:27.239Z,80.54
2023-09-08T04:14:25.499Z,81.64
2023-09-08T04:19:24.755Z,81.64
2023-09-08T04:24:23.063Z,80.33
2023-09-08T04:29:23.200Z,79.93
2023-09-08T04:34:21.471Z,80.83
2023-09-08T04:39:21.744Z,79.23
2023-09-08T04:44:21.052Z,79.53
2023-09-08T04:49:19.322Z,81.44
2023-09-08T04:54:19.642Z,80.54
2023-09-08T04:59:17.953Z,81.18
2023-09-08T05:04:18.261Z,81.27
2023-09-08T05:09:18.566Z,81.14
2023-09-08T05:14:15.900Z,81.38
2023-09-08T05:19:15.983Z,80.54
2023-09-08T05:24:14.280Z,80.24
2023-09-08T05:29:13.558Z,80.90
2023-09-08T05:34:12.780Z,82.34
2023-09-08T05:39:14.054Z,81.70
2023-09-08T05:44:11.339Z,82.00
2023-09-08T05:49:11.655Z,81.67
2023-09-08T05:54:10.904Z,80.42
2023-09-08T05:59:10.183Z,79.88
2023-09-08T06:04:10.514Z,80.65
2023-09-08T06:09:09.614Z,78.94
2023-09-08T06:14:06.909Z,79.14
2023-09-08T06:19:06.184Z,78.70
2023-09-08T06:24:05.483Z,77.47
2023-09-08T06:29:05.643Z,76.63
2023-09-08T06:34:05.081Z,77.53
2023-09-08T06:39:03.087Z,77.73
2023-09-08T06:44:02.350Z,77.29
2023-09-08T06:49:05.214Z,77.33
2023-09-08T06:54:01.841Z,78.19
2023-09-08T06:59:00.089Z,77.39
2023-09-08T07:04:01.497Z,77.19
2023-09-08T07:08:58.681Z,77.49
2023-09-08T07:13:58.965Z,77.69
2023-09-08T07:18:57.299Z,76.65
2023-09-08T07:23:57.532Z,76.68
2023-09-08T07:28:55.815Z,75.48
2023-09-08T07:33:55.085Z,75.55
2023-09-08T07:38:54.489Z,75.55
2023-09-08T07:43:54.674Z,72.81
2023-09-08T07:48:52.744Z,73.18
2023-09-08T07:53:52.091Z,67.40
2023-09-08T07:58:51.261Z,67.80
2023-09-08T08:03:51.605Z,71.92
2023-09-08T08:08:49.754Z,72.55
2023-09-08T08:13:51.036Z,71.42
2023-09-08T08:18:51.428Z,71.28
2023-09-08T08:23:48.573Z,71.62
2023-09-08T08:28:46.877Z,71.58
2023-09-08T08:33:47.217Z,69.85
2023-09-08T08:38:45.287Z,71.35
2023-09-08T08:43:45.574Z,70.85
2023-09-08T08:48:44.711Z,69.29
2023-09-08T08:53:42.998Z,71.78
2023-09-08T08:58:42.250Z,70.75
2023-09-08T09:03:41.567Z,68.90
2023-09-08T09:08:40.683Z,69.69
2023-09-08T09:13:39.926Z,68.80
2023-09-08T09:18:40.240Z,68.70
2023-09-08T09:23:38.473Z,68.90
2023-09-08T09:28:39.766Z,67.97
2023-09-08T09:33:38.109Z,67.54
2023-09-08T09:38:38.521Z,67.41
2023-09-08T09:43:35.358Z,66.41
2023-09-08T09:48:35.902Z,66.38
2023-09-08T09:53:34.883Z,65.92
2023-09-08T09:58:34.348Z,65.82
2023-09-08T10:03:34.272Z,65.62
2023-09-08T10:08:32.556Z,65.92
2023-09-08T10:13:30.798Z,65.82
2023-09-08T10:18:31.217Z,65.09
2023-09-08T10:23:29.117Z,62.81
2023-09-08T10:28:28.400Z,63.31
2023-09-08T10:33:27.695Z,63.01
2023-09-08T10:38:27.982Z,63.48
2023-09-08T10:43:28.314Z,63.67
2023-09-08T10:48:25.594Z,63.18
2023-09-08T10:53:24.840Z,63.37
2023-09-08T10:58:26.772Z,63.54
2023-09-08T11:03:25.448Z,64.34
2023-09-08T11:08:22.601Z,64.34
2023-09-08T11:13:21.838Z,63.84
2023-09-08T11:18:21.167Z,63.94
2023-09-08T11:23:20.251Z,63.71
2023-09-08T11:28:20.635Z,64.14
2023-09-08T11:33:19.713Z,64.11
2023-09-08T11:38:17.973Z,64.50
2023-09-08T11:43:17.222Z,64.90
2023-09-08T11:48:16.501Z,65.00
2023-09-08T11:53:16.709Z,65.89
2023-09-08T11:58:16.021Z,64.37
2023-09-08T12:03:16.301Z,64.67
2023-09-08T12:08:13.540Z,63.28
2023-09-08T12:13:13.369Z,63.39
2023-09-08T12:18:12.059Z,63.09
2023-09-08T12:23:13.315Z,62.99
2023-09-08T12:28:10.670Z,62.85
2023-09-08T12:33:10.929Z,63.35
2023-09-08T12:38:09.186Z,61.37
2023-09-08T12:43:24.905Z,61.57
2023-09-08T12:48:08.650Z,61.57
2023-09-08T12:53:07.874Z,61.07
2023-09-08T12:58:06.155Z,61.27
2023-09-08T13:03:07.766Z,61.24
2023-09-08T13:08:04.914Z,59.56
2023-09-08T13:13:04.216Z,59.66
2023-09-08T13:18:06.975Z,58.57
2023-09-08T13:23:03.800Z,59.04
2023-09-08T13:28:03.080Z,58.74
2023-09-08T13:33:01.610Z,57.26
2023-09-08T13:38:01.510Z,57.75
2023-09-08T13:42:59.782Z,57.46
2023-09-08T13:48:01.222Z,55.87
2023-09-08T13:52:59.274Z,55.97
2023-09-08T13:58:01.424Z,56.04
2023-09-08T14:02:59.027Z,56.04
2023-09-08T14:08:06.068Z,56.67
2023-09-08T14:12:57.528Z,56.37
2023-09-08T14:17:54.668Z,57.29
2023-09-08T14:22:54.884Z,55.87
2023-09-08T14:27:53.123Z,55.68
2023-09-08T14:32:53.388Z,54.10
2023-09-08T14:37:50.649Z,53.18
2023-09-08T14:42:53.916Z,52.58
2023-09-08T14:47:52.169Z,53.28
2023-09-08T14:52:50.416Z,51.99
2023-09-08T14:57:48.622Z,52.48
2023-09-08T15:02:47.801Z,51.79
2023-09-08T15:07:46.961Z,53.28
2023-09-08T15:12:46.316Z,52.39
2023-09-08T15:17:45.345Z,51.50
2023-09-08T15:22:44.834Z,51.59
2023-09-08T15:27:47.090Z,51.59
2023-09-08T15:32:44.230Z,51.97
2023-09-08T15:37:43.560Z,51.87
2023-09-08T15:42:41.698Z,52.36
2023-09-08T15:47:40.816Z,52.95
2023-09-08T15:52:41.199Z,52.95
2023-09-08T15:57:39.365Z,53.25
2023-09-08T16:02:38.456Z,53.45
2023-09-08T16:07:37.663Z,53.64
2023-09-08T16:12:36.925Z,53.75
2023-09-08T16:17:36.145Z,53.15
2023-09-08T16:22:34.305Z,53.75
2023-09-08T16:27:35.504Z,52.88
2023-09-08T16:32:33.721Z,53.05
2023-09-08T16:37:34.031Z,52.66
2023-09-08T16:42:34.288Z,52.95
2023-09-08T16:47:31.639Z,53.15
2023-09-08T16:52:31.767Z,53.35
2023-09-08T16:57:29.996Z,55.62
2023-09-08T17:02:29.230Z,54.96
2023-09-08T17:07:28.533Z,55.87
2023-09-08T17:12:28.804Z,56.89
2023-09-08T17:17:29.054Z,56.23
2023-09-08T17:22:26.270Z,57.93
2023-09-08T17:27:26.709Z,58.26
2023-09-08T17:32:24.943Z,61.96
2023-09-08T17:37:24.090Z,63.28
2023-09-08T17:42:24.042Z,61.52
2023-09-08T17:47:23.408Z,60.72
2023-09-08T17:52:21.565Z,61.39
2023-09-08T17:57:24.335Z,64.23
2023-09-08T18:02:19.989Z,62.94
2023-09-08T18:07:19.294Z,68.63
2023-09-08T18:12:18.488Z,70.59
2023-09-08T18:17:18.693Z,70.72
2023-09-08T18:22:16.860Z,68.80
2023-09-08T18:27:17.907Z,68.93
2023-09-08T18:32:14.315Z,69.85
2023-09-08T18:37:15.551Z,69.53
2023-09-08T18:42:15.549Z,69.46
2023-09-08T18:47:13.045Z,68.37
2023-09-08T18:52:13.314Z,68.86
2023-09-08T18:57:12.579Z,70.52
2023-09-08T19:02:14.541Z,71.09
2023-09-08T19:07:10.015Z,72.41
2023-09-08T19:12:11.038Z,72.55
2023-09-08T19:17:09.114Z,72.61
2023-09-08T19:22:08.727Z,72.55
2023-09-08T19:27:06.862Z,72.75
2023-09-08T19:32:07.131Z,73.68
2023-09-08T19:37:06.397Z,72.88
2023-09-08T19:42:04.645Z,72.15
2023-09-08T19:47:03.900Z,72.52
2023-09-08T19:52:03.009Z,73.22
2023-09-08T19:57:02.429Z,72.62
2023-09-08T20:02:02.746Z,73.52
2023-09-08T20:07:00.816Z,73.85
2023-09-08T20:12:00.977Z,75.35
2023-09-08T20:17:00.298Z,75.85
2023-09-08T20:22:02.472Z,77.98
2023-09-08T20:26:58.847Z,76.78
2023-09-08T20:31:57.060Z,75.35
2023-09-08T20:36:57.294Z,76.52
2023-09-08T20:41:55.516Z,75.55
2023-09-08T20:46:54.703Z,75.38
2023-09-08T20:51:53.915Z,76.72
2023-09-08T20:56:55.196Z,76.22
2023-09-08T21:01:53.376Z,76.12
2023-09-08T21:06:51.304Z,76.86
2023-09-08T21:11:51.343Z,76.02
2023-09-08T21:16:50.424Z,75.92
2023-09-08T21:21:48.855Z,76.42
2023-09-08T21:26:51.023Z,76.45
2023-09-08T21:31:47.175Z,75.12
2023-09-08T21:36:47.239Z,74.49
2023-09-08T21:41:46.523Z,74.49
2023-09-08T21:46:44.771Z,75.82
2023-09-08T21:51:44.061Z,74.29
2023-09-08T21:56:43.309Z,75.42
2023-09-08T22:01:42.610Z,75.35
2023-09-08T22:06:41.873Z,75.65
2023-09-08T22:11:41.133Z,76.49
2023-09-08T22:16:41.426Z,75.76
2023-09-08T22:21:40.716Z,75.76
2023-09-08T22:26:38.954Z,75.26
2023-09-08T22:31:38.241Z,75.59
2023-09-08T22:36:37.488Z,75.59
2023-09-08T22:41:36.763Z,75.89
2023-09-08T22:46:37.132Z,75.39
2023-09-08T22:51:35.201Z,76.09
2023-09-08T22:56:34.389Z,74.59
2023-09-08T23:01:34.784Z,76.13
2023-09-08T23:06:33.831Z,75.09
2023-09-08T23:11:32.088Z,74.66
2023-09-08T23:16:31.374Z,74.05
2023-09-08T23:21:31.495Z,75.19
2023-09-08T23:26:29.716Z,75.23
2023-09-08T23:31:29.124Z,76.33
2023-09-08T23:36:28.262Z,77.06
2023-09-08T23:41:27.600Z,75.63
2023-09-08T23:46:28.933Z,76.56
2023-09-08T23:51:26.204Z,73.79
2023-09-08T23:56:25.505Z,77.47
